sensor_id;sensor_type;location;lat;lon;timestamp;pressure;altitude;pressure_sealevel;temperature;humidity
62978;BME280;49073;42.352;23.808;2023-01-15T00:01:30;95089.66;;;4.02;86.93
62978;BME280;49073;42.352;23.808;2023-01-15T00:04:30;95083.44;;;3.98;87.49
62978;BME280;49073;42.352;23.808;2023-01-15T00:07:31;95097.94;;;4.09;87.36
62978;BME280;49073;42.352;23.808;2023-01-15T00:10:32;95100.56;;;4.09;86.81
62978;BME280;49073;42.352;23.808;2023-01-15T00:13:32;95101.66;;;4.08;86.41
62978;BME280;49073;42.352;23.808;2023-01-15T00:16:33;95104.66;;;3.92;87.17
62978;BME280;49073;42.352;23.808;2023-01-15T00:19:33;95100.44;;;3.91;87.63
62978;BME280;49073;42.352;23.808;2023-01-15T00:22:34;95098.16;;;3.99;87.50
62978;BME280;49073;42.352;23.808;2023-01-15T00:25:34;95104.53;;;3.98;87.33
62978;BME280;49073;42.352;23.808;2023-01-15T00:28:53;95100.22;;;3.79;88.21
62978;BME280;49073;42.352;23.808;2023-01-15T00:32:04;95094.81;;;3.84;87.97
62978;BME280;49073;42.352;23.808;2023-01-15T00:35:05;95098.81;;;3.82;87.66
62978;BME280;49073;42.352;23.808;2023-01-15T00:38:05;95105.97;;;3.81;87.83
62978;BME280;49073;42.352;23.808;2023-01-15T00:41:07;95108.59;;;3.81;87.83
62978;BME280;49073;42.352;23.808;2023-01-15T00:44:07;95108.88;;;3.79;88.17
62978;BME280;49073;42.352;23.808;2023-01-15T00:47:08;95105.38;;;3.84;87.32
62978;BME280;49073;42.352;23.808;2023-01-15T00:50:14;95106.53;;;3.92;87.39
62978;BME280;49073;42.352;23.808;2023-01-15T00:53:15;95104.47;;;3.89;86.95
62978;BME280;49073;42.352;23.808;2023-01-15T00:56:15;95097.94;;;3.86;87.43
62978;BME280;49073;42.352;23.808;2023-01-15T00:59:16;95094.53;;;3.86;87.92
62978;BME280;49073;42.352;23.808;2023-01-15T01:02:16;95095.91;;;3.83;87.79
62978;BME280;49073;42.352;23.808;2023-01-15T01:05:17;95089.25;;;3.86;87.81
62978;BME280;49073;42.352;23.808;2023-01-15T01:08:18;95089.44;;;3.89;87.87
62978;BME280;49073;42.352;23.808;2023-01-15T01:11:21;95080.31;;;3.96;87.20
62978;BME280;49073;42.352;23.808;2023-01-15T01:14:26;95079.06;;;3.93;87.15
62978;BME280;49073;42.352;23.808;2023-01-15T01:17:26;95075.41;;;4.03;86.34
62978;BME280;49073;42.352;23.808;2023-01-15T01:20:27;95070.78;;;4.08;85.65
62978;BME280;49073;42.352;23.808;2023-01-15T01:23:28;95075.16;;;4.13;84.86
62978;BME280;49073;42.352;23.808;2023-01-15T01:26:29;95065.03;;;4.06;84.35
62978;BME280;49073;42.352;23.808;2023-01-15T01:29:30;95064.97;;;3.98;84.37
62978;BME280;49073;42.352;23.808;2023-01-15T01:32:31;95064.50;;;3.96;84.84
62978;BME280;49073;42.352;23.808;2023-01-15T01:35:32;95066.19;;;3.69;85.84
62978;BME280;49073;42.352;23.808;2023-01-15T01:38:32;95065.75;;;3.53;87.23
62978;BME280;49073;42.352;23.808;2023-01-15T01:41:33;95070.63;;;3.59;87.68
62978;BME280;49073;42.352;23.808;2023-01-15T01:47:34;95067.53;;;3.66;87.49
62978;BME280;49073;42.352;23.808;2023-01-15T01:50:37;95065.63;;;3.58;87.23
62978;BME280;49073;42.352;23.808;2023-01-15T01:53:38;95063.41;;;3.51;87.38
62978;BME280;49073;42.352;23.808;2023-01-15T01:56:39;95072.66;;;3.62;85.11
62978;BME280;49073;42.352;23.808;2023-01-15T01:59:40;95061.56;;;3.52;84.03
62978;BME280;49073;42.352;23.808;2023-01-15T02:02:45;95062.16;;;3.48;83.78
62978;BME280;49073;42.352;23.808;2023-01-15T02:05:50;95066.75;;;3.43;83.58
62978;BME280;49073;42.352;23.808;2023-01-15T02:08:51;95070.56;;;3.37;83.43
62978;BME280;49073;42.352;23.808;2023-01-15T02:11:56;95081.59;;;3.39;83.61
62978;BME280;49073;42.352;23.808;2023-01-15T02:15:12;95070.91;;;3.21;84.85
62978;BME280;49073;42.352;23.808;2023-01-15T02:18:41;95072.16;;;3.24;85.79
62978;BME280;49073;42.352;23.808;2023-01-15T02:25:06;95065.75;;;3.16;87.43
62978;BME280;49073;42.352;23.808;2023-01-15T02:28:29;95067.88;;;3.14;87.41
62978;BME280;49073;42.352;23.808;2023-01-15T02:31:36;95060.75;;;3.14;87.73
62978;BME280;49073;42.352;23.808;2023-01-15T02:34:43;95068.53;;;3.19;88.14
62978;BME280;49073;42.352;23.808;2023-01-15T02:37:50;95061.09;;;3.35;87.41
62978;BME280;49073;42.352;23.808;2023-01-15T02:40:55;95064.25;;;3.24;88.04
62978;BME280;49073;42.352;23.808;2023-01-15T02:43:58;95052.75;;;3.19;88.84
62978;BME280;49073;42.352;23.808;2023-01-15T02:47:02;95066.47;;;3.30;88.96
62978;BME280;49073;42.352;23.808;2023-01-15T02:50:08;95060.22;;;3.40;88.00
62978;BME280;49073;42.352;23.808;2023-01-15T02:53:16;95068.25;;;3.35;88.85
62978;BME280;49073;42.352;23.808;2023-01-15T02:56:23;95058.66;;;3.39;89.07
62978;BME280;49073;42.352;23.808;2023-01-15T02:59:29;95068.41;;;3.39;89.03
62978;BME280;49073;42.352;23.808;2023-01-15T03:02:35;95066.75;;;3.43;89.23
62978;BME280;49073;42.352;23.808;2023-01-15T03:05:55;95060.59;;;3.47;88.94
62978;BME280;49073;42.352;23.808;2023-01-15T03:08:57;95072.97;;;3.47;89.00
62978;BME280;49073;42.352;23.808;2023-01-15T03:12:19;95070.16;;;3.43;88.66
62978;BME280;49073;42.352;23.808;2023-01-15T03:15:21;95060.19;;;3.54;88.66
62978;BME280;49073;42.352;23.808;2023-01-15T03:18:54;95063.50;;;3.46;89.15
62978;BME280;49073;42.352;23.808;2023-01-15T03:22:02;95061.00;;;3.41;88.93
62978;BME280;49073;42.352;23.808;2023-01-15T03:25:20;95064.69;;;3.40;89.43
62978;BME280;49073;42.352;23.808;2023-01-15T03:28:28;95064.09;;;3.43;89.61
62978;BME280;49073;42.352;23.808;2023-01-15T03:31:32;95060.59;;;3.47;89.35
62978;BME280;49073;42.352;23.808;2023-01-15T03:37:41;95060.34;;;3.35;89.86
62978;BME280;49073;42.352;23.808;2023-01-15T03:48:27;95064.00;;;3.48;89.57
62978;BME280;49073;42.352;23.808;2023-01-15T03:51:18;95069.00;;;3.72;88.23
62978;BME280;49073;42.352;23.808;2023-01-15T03:54:36;95066.91;;;3.60;88.34
62978;BME280;49073;42.352;23.808;2023-01-15T04:00:56;95059.50;;;3.48;89.33
62978;BME280;49073;42.352;23.808;2023-01-15T04:03:59;95074.22;;;3.63;89.31
62978;BME280;49073;42.352;23.808;2023-01-15T04:07:02;95067.75;;;3.70;88.27
62978;BME280;49073;42.352;23.808;2023-01-15T04:10:06;95076.72;;;3.69;88.30
62978;BME280;49073;42.352;23.808;2023-01-15T04:13:07;95065.00;;;3.75;87.59
62978;BME280;49073;42.352;23.808;2023-01-15T04:16:08;95071.16;;;3.70;87.77
62978;BME280;49073;42.352;23.808;2023-01-15T04:19:09;95062.84;;;3.77;87.72
62978;BME280;49073;42.352;23.808;2023-01-15T04:22:10;95066.66;;;3.71;87.63
62978;BME280;49073;42.352;23.808;2023-01-15T04:25:11;95071.25;;;3.65;88.17
62978;BME280;49073;42.352;23.808;2023-01-15T04:28:11;95069.41;;;3.66;88.27
62978;BME280;49073;42.352;23.808;2023-01-15T04:31:12;95071.09;;;3.61;88.46
62978;BME280;49073;42.352;23.808;2023-01-15T04:34:15;95066.81;;;3.52;89.52
62978;BME280;49073;42.352;23.808;2023-01-15T04:37:16;95066.47;;;3.44;89.59
62978;BME280;49073;42.352;23.808;2023-01-15T04:40:17;95072.09;;;3.52;89.50
62978;BME280;49073;42.352;23.808;2023-01-15T04:43:36;95083.84;;;3.68;88.85
62978;BME280;49073;42.352;23.808;2023-01-15T04:46:55;95079.00;;;3.61;88.90
62978;BME280;49073;42.352;23.808;2023-01-15T04:49:56;95078.31;;;3.56;88.89
62978;BME280;49073;42.352;23.808;2023-01-15T04:52:57;95079.69;;;3.53;88.79
62978;BME280;49073;42.352;23.808;2023-01-15T04:55:59;95094.94;;;3.56;88.61
62978;BME280;49073;42.352;23.808;2023-01-15T04:59:01;95087.91;;;3.52;88.44
62978;BME280;49073;42.352;23.808;2023-01-15T05:02:02;95092.28;;;3.56;88.29
62978;BME280;49073;42.352;23.808;2023-01-15T05:05:03;95090.81;;;3.50;88.80
62978;BME280;49073;42.352;23.808;2023-01-15T05:08:03;95097.66;;;3.51;89.02
62978;BME280;49073;42.352;23.808;2023-01-15T05:11:06;95092.47;;;3.60;88.36
62978;BME280;49073;42.352;23.808;2023-01-15T05:14:06;95102.53;;;3.44;88.78
62978;BME280;49073;42.352;23.808;2023-01-15T05:17:07;95101.00;;;3.43;89.24
62978;BME280;49073;42.352;23.808;2023-01-15T05:20:08;95105.78;;;3.41;89.33
62978;BME280;49073;42.352;23.808;2023-01-15T05:23:09;95098.81;;;3.59;88.13
62978;BME280;49073;42.352;23.808;2023-01-15T05:26:10;95101.84;;;3.52;87.47
62978;BME280;49073;42.352;23.808;2023-01-15T05:29:11;95092.53;;;3.32;87.96
62978;BME280;49073;42.352;23.808;2023-01-15T05:32:13;95081.09;;;3.37;87.71
62978;BME280;49073;42.352;23.808;2023-01-15T05:35:13;95078.00;;;3.20;88.13
62978;BME280;49073;42.352;23.808;2023-01-15T05:38:14;95072.66;;;3.26;86.76
62978;BME280;49073;42.352;23.808;2023-01-15T05:41:16;95073.75;;;3.11;86.10
62978;BME280;49073;42.352;23.808;2023-01-15T05:44:36;95073.16;;;3.00;85.98
62978;BME280;49073;42.352;23.808;2023-01-15T05:47:37;95066.25;;;2.90;85.46
62978;BME280;49073;42.352;23.808;2023-01-15T05:50:37;95074.44;;;2.74;85.66
62978;BME280;49073;42.352;23.808;2023-01-15T05:53:38;95077.97;;;2.70;85.87
62978;BME280;49073;42.352;23.808;2023-01-15T05:56:39;95072.69;;;2.56;86.63
62978;BME280;49073;42.352;23.808;2023-01-15T05:59:39;95078.31;;;2.49;87.18
62978;BME280;49073;42.352;23.808;2023-01-15T06:02:40;95067.59;;;2.59;87.33
62978;BME280;49073;42.352;23.808;2023-01-15T06:05:40;95077.75;;;2.66;87.07
62978;BME280;49073;42.352;23.808;2023-01-15T06:08:41;95067.81;;;2.63;86.77
62978;BME280;49073;42.352;23.808;2023-01-15T06:11:42;95061.28;;;2.60;86.96
62978;BME280;49073;42.352;23.808;2023-01-15T06:14:42;95071.91;;;2.69;86.27
62978;BME280;49073;42.352;23.808;2023-01-15T06:17:43;95072.28;;;2.49;86.45
62978;BME280;49073;42.352;23.808;2023-01-15T06:20:43;95076.84;;;2.43;87.67
62978;BME280;49073;42.352;23.808;2023-01-15T06:23:45;95083.88;;;2.47;87.49
62978;BME280;49073;42.352;23.808;2023-01-15T06:26:46;95087.59;;;2.46;87.41
62978;BME280;49073;42.352;23.808;2023-01-15T06:29:46;95091.09;;;2.56;87.40
62978;BME280;49073;42.352;23.808;2023-01-15T06:32:48;95098.22;;;2.69;87.17
62978;BME280;49073;42.352;23.808;2023-01-15T06:35:49;95095.19;;;2.62;87.76
62978;BME280;49073;42.352;23.808;2023-01-15T06:38:50;95098.31;;;2.64;88.60
62978;BME280;49073;42.352;23.808;2023-01-15T06:41:50;95102.63;;;2.74;88.58
62978;BME280;49073;42.352;23.808;2023-01-15T06:45:15;95097.84;;;2.76;89.16
62978;BME280;49073;42.352;23.808;2023-01-15T06:48:35;95107.09;;;2.87;89.16
62978;BME280;49073;42.352;23.808;2023-01-15T06:51:35;95105.66;;;2.95;89.46
62978;BME280;49073;42.352;23.808;2023-01-15T06:54:37;95108.66;;;2.88;89.59
62978;BME280;49073;42.352;23.808;2023-01-15T06:57:38;95114.22;;;2.87;90.35
62978;BME280;49073;42.352;23.808;2023-01-15T07:00:39;95104.75;;;2.86;90.36
62978;BME280;49073;42.352;23.808;2023-01-15T07:03:43;95106.91;;;2.84;91.09
62978;BME280;49073;42.352;23.808;2023-01-15T07:06:44;95112.38;;;2.87;90.65
62978;BME280;49073;42.352;23.808;2023-01-15T07:09:45;95115.28;;;3.00;90.62
62978;BME280;49073;42.352;23.808;2023-01-15T07:12:45;95117.06;;;3.04;90.72
62978;BME280;49073;42.352;23.808;2023-01-15T07:15:46;95116.47;;;3.08;91.10
62978;BME280;49073;42.352;23.808;2023-01-15T07:18:46;95113.63;;;3.18;91.02
62978;BME280;49073;42.352;23.808;2023-01-15T07:21:47;95115.66;;;3.21;90.69
62978;BME280;49073;42.352;23.808;2023-01-15T07:24:48;95106.22;;;3.20;90.86
62978;BME280;49073;42.352;23.808;2023-01-15T07:27:49;95112.75;;;3.09;92.08
62978;BME280;49073;42.352;23.808;2023-01-15T07:30:49;95123.38;;;3.03;92.79
62978;BME280;49073;42.352;23.808;2023-01-15T07:33:50;95110.31;;;3.12;93.20
62978;BME280;49073;42.352;23.808;2023-01-15T07:36:50;95112.75;;;3.09;92.86
62978;BME280;49073;42.352;23.808;2023-01-15T07:39:51;95117.06;;;3.04;91.94
62978;BME280;49073;42.352;23.808;2023-01-15T07:42:51;95110.13;;;3.09;91.45
62978;BME280;49073;42.352;23.808;2023-01-15T07:46:10;95119.78;;;2.99;91.11
62978;BME280;49073;42.352;23.808;2023-01-15T07:49:29;95123.28;;;2.95;91.83
62978;BME280;49073;42.352;23.808;2023-01-15T07:52:45;95123.38;;;3.03;91.96
62978;BME280;49073;42.352;23.808;2023-01-15T08:07:05;95120.91;;;3.35;89.20
62978;BME280;49073;42.352;23.808;2023-01-15T08:10:11;95123.13;;;3.42;87.85
62978;BME280;49073;42.352;23.808;2023-01-15T08:13:12;95122.16;;;3.38;86.95
62978;BME280;49073;42.352;23.808;2023-01-15T08:16:34;95123.81;;;3.47;86.08
62978;BME280;49073;42.352;23.808;2023-01-15T08:19:35;95132.22;;;3.49;85.45
62978;BME280;49073;42.352;23.808;2023-01-15T08:22:36;95134.44;;;3.56;85.05
62978;BME280;49073;42.352;23.808;2023-01-15T08:25:37;95140.47;;;3.71;85.08
62978;BME280;49073;42.352;23.808;2023-01-15T08:28:38;95131.41;;;3.63;84.65
62978;BME280;49073;42.352;23.808;2023-01-15T08:31:38;95129.94;;;3.57;84.24
62978;BME280;49073;42.352;23.808;2023-01-15T08:34:40;95135.78;;;3.68;83.78
62978;BME280;49073;42.352;23.808;2023-01-15T08:37:41;95130.03;;;3.66;84.30
62978;BME280;49073;42.352;23.808;2023-01-15T08:40:42;95133.25;;;3.62;84.39
62978;BME280;49073;42.352;23.808;2023-01-15T08:43:58;95127.31;;;3.57;85.84
62978;BME280;49073;42.352;23.808;2023-01-15T08:46:59;95129.25;;;3.51;85.95
62978;BME280;49073;42.352;23.808;2023-01-15T08:49:59;95124.53;;;3.76;85.35
62978;BME280;49073;42.352;23.808;2023-01-15T08:53:00;95120.03;;;3.76;85.04
62978;BME280;49073;42.352;23.808;2023-01-15T08:56:01;95111.91;;;3.87;85.16
62978;BME280;49073;42.352;23.808;2023-01-15T08:59:05;95113.75;;;3.86;85.29
62978;BME280;49073;42.352;23.808;2023-01-15T09:02:10;95118.25;;;3.86;84.86
62978;BME280;49073;42.352;23.808;2023-01-15T09:05:11;95121.78;;;3.81;85.00
62978;BME280;49073;42.352;23.808;2023-01-15T09:08:12;95124.06;;;3.74;85.60
62978;BME280;49073;42.352;23.808;2023-01-15T09:11:12;95119.75;;;3.78;85.51
62978;BME280;49073;42.352;23.808;2023-01-15T09:14:17;95103.72;;;3.74;86.37
62978;BME280;49073;42.352;23.808;2023-01-15T09:17:17;95113.34;;;3.93;86.07
62978;BME280;49073;42.352;23.808;2023-01-15T09:20:18;95105.91;;;3.95;85.86
62978;BME280;49073;42.352;23.808;2023-01-15T09:23:18;95092.91;;;3.99;86.11
62978;BME280;49073;42.352;23.808;2023-01-15T09:26:25;95093.03;;;3.93;85.39
62978;BME280;49073;42.352;23.808;2023-01-15T09:29:26;95095.19;;;3.91;85.65
62978;BME280;49073;42.352;23.808;2023-01-15T09:32:27;95095.31;;;3.86;86.12
62978;BME280;49073;42.352;23.808;2023-01-15T09:35:27;95091.09;;;3.85;86.24
62978;BME280;49073;42.352;23.808;2023-01-15T09:38:28;95091.16;;;4.17;85.94
62978;BME280;49073;42.352;23.808;2023-01-15T09:41:54;95092.16;;;4.30;84.94
62978;BME280;49073;42.352;23.808;2023-01-15T09:45:44;95079.47;;;4.09;84.48
62978;BME280;49073;42.352;23.808;2023-01-15T09:49:09;95081.16;;;4.05;85.29
62978;BME280;49073;42.352;23.808;2023-01-15T09:55:43;95070.94;;;4.35;85.14
62978;BME280;49073;42.352;23.808;2023-01-15T09:58:44;95066.59;;;4.39;83.93
62978;BME280;49073;42.352;23.808;2023-01-15T10:01:46;95057.69;;;4.26;84.38
62978;BME280;49073;42.352;23.808;2023-01-15T10:04:52;95049.66;;;4.31;83.77
62978;BME280;49073;42.352;23.808;2023-01-15T10:08:22;95042.91;;;4.16;84.77
62978;BME280;49073;42.352;23.808;2023-01-15T10:11:29;95039.97;;;4.18;84.71
62978;BME280;49073;42.352;23.808;2023-01-15T10:18:18;95028.25;;;4.42;84.16
62978;BME280;49073;42.352;23.808;2023-01-15T10:27:28;95016.47;;;4.39;83.07
62978;BME280;49073;42.352;23.808;2023-01-15T10:30:41;95013.53;;;4.41;83.13
62978;BME280;49073;42.352;23.808;2023-01-15T10:33:59;95002.09;;;4.63;82.35
62978;BME280;49073;42.352;23.808;2023-01-15T10:37:20;95002.84;;;4.46;81.94
62978;BME280;49073;42.352;23.808;2023-01-15T10:44:00;94992.72;;;4.39;81.53
62978;BME280;49073;42.352;23.808;2023-01-15T10:47:11;94983.13;;;4.43;82.13
62978;BME280;49073;42.352;23.808;2023-01-15T10:50:22;94980.81;;;4.50;81.88
62978;BME280;49073;42.352;23.808;2023-01-15T10:56:32;94970.88;;;4.47;81.33
62978;BME280;49073;42.352;23.808;2023-01-15T10:59:47;94970.84;;;4.39;81.71
62978;BME280;49073;42.352;23.808;2023-01-15T11:03:00;94952.06;;;4.40;82.01
62978;BME280;49073;42.352;23.808;2023-01-15T11:06:06;94956.91;;;4.47;81.56
62978;BME280;49073;42.352;23.808;2023-01-15T11:09:18;94951.19;;;4.71;81.07
62978;BME280;49073;42.352;23.808;2023-01-15T11:12:24;94948.13;;;4.87;80.77
62978;BME280;49073;42.352;23.808;2023-01-15T11:15:25;94947.97;;;4.74;80.48
62978;BME280;49073;42.352;23.808;2023-01-15T11:18:45;94944.84;;;4.63;81.31
62978;BME280;49073;42.352;23.808;2023-01-15T11:22:16;94941.75;;;4.79;80.36
62978;BME280;49073;42.352;23.808;2023-01-15T11:25:30;94941.41;;;4.63;79.96
62978;BME280;49073;42.352;23.808;2023-01-15T11:28:39;94939.66;;;4.49;80.63
62978;BME280;49073;42.352;23.808;2023-01-15T11:31:42;94940.25;;;4.37;80.73
62978;BME280;49073;42.352;23.808;2023-01-15T11:34:51;94940.72;;;4.40;80.95
62978;BME280;49073;42.352;23.808;2023-01-15T11:38:10;94931.72;;;4.32;81.02
62978;BME280;49073;42.352;23.808;2023-01-15T11:44:24;94931.72;;;4.32;81.22
62978;BME280;49073;42.352;23.808;2023-01-15T11:47:50;94927.53;;;4.31;82.02
62978;BME280;49073;42.352;23.808;2023-01-15T11:51:16;94926.31;;;4.37;82.66
62978;BME280;49073;42.352;23.808;2023-01-15T11:54:17;94926.59;;;4.35;81.94
62978;BME280;49073;42.352;23.808;2023-01-15T11:57:30;94924.09;;;4.30;83.08
62978;BME280;49073;42.352;23.808;2023-01-15T12:00:34;94921.91;;;4.24;83.29
62978;BME280;49073;42.352;23.808;2023-01-15T12:03:38;94918.63;;;4.18;83.57
62978;BME280;49073;42.352;23.808;2023-01-15T12:06:40;94911.03;;;4.16;84.66
62978;BME280;49073;42.352;23.808;2023-01-15T12:26:30;94908.75;;;3.83;94.51
62978;BME280;49073;42.352;23.808;2023-01-15T12:29:52;94905.72;;;3.67;96.38
62978;BME280;49073;42.352;23.808;2023-01-15T12:33:13;94905.56;;;3.63;98.24
62978;BME280;49073;42.352;23.808;2023-01-15T12:36:38;94906.28;;;3.55;100.00
62978;BME280;49073;42.352;23.808;2023-01-15T12:39:48;94911.06;;;3.53;100.00
62978;BME280;49073;42.352;23.808;2023-01-15T12:42:52;94903.34;;;3.57;100.00
62978;BME280;49073;42.352;23.808;2023-01-15T12:46:15;94906.56;;;3.54;100.00
62978;BME280;49073;42.352;23.808;2023-01-15T12:49:31;94893.34;;;3.45;100.00
62978;BME280;49073;42.352;23.808;2023-01-15T12:52:38;94898.94;;;3.43;100.00
62978;BME280;49073;42.352;23.808;2023-01-15T12:55:44;94899.09;;;3.47;100.00
62978;BME280;49073;42.352;23.808;2023-01-15T13:02:28;94887.13;;;3.41;100.00
62978;BME280;49073;42.352;23.808;2023-01-15T13:05:44;94890.84;;;3.40;100.00
62978;BME280;49073;42.352;23.808;2023-01-15T13:08:59;94880.44;;;3.34;100.00
62978;BME280;49073;42.352;23.808;2023-01-15T13:12:01;94884.63;;;3.35;100.00
62978;BME280;49073;42.352;23.808;2023-01-15T13:15:03;94884.69;;;3.44;100.00
62978;BME280;49073;42.352;23.808;2023-01-15T13:18:22;94883.75;;;3.49;100.00
62978;BME280;49073;42.352;23.808;2023-01-15T13:21:28;94883.97;;;3.30;100.00
62978;BME280;49073;42.352;23.808;2023-01-15T13:24:50;94885.81;;;3.29;100.00
62978;BME280;49073;42.352;23.808;2023-01-15T13:35:19;94874.06;;;3.27;100.00
62978;BME280;49073;42.352;23.808;2023-01-15T13:38:26;94880.81;;;3.19;100.00
62978;BME280;49073;42.352;23.808;2023-01-15T13:41:32;94878.19;;;3.19;100.00
62978;BME280;49073;42.352;23.808;2023-01-15T13:44:52;94880.03;;;3.18;100.00
62978;BME280;49073;42.352;23.808;2023-01-15T13:47:57;94873.69;;;3.19;100.00
62978;BME280;49073;42.352;23.808;2023-01-15T13:51:03;94861.59;;;3.18;100.00
62978;BME280;49073;42.352;23.808;2023-01-15T13:54:12;94866.09;;;3.18;100.00
62978;BME280;49073;42.352;23.808;2023-01-15T13:57:41;94866.56;;;3.20;100.00
62978;BME280;49073;42.352;23.808;2023-01-15T14:00:42;94864.22;;;3.18;100.00
62978;BME280;49073;42.352;23.808;2023-01-15T14:07:01;94858.91;;;3.10;100.00
62978;BME280;49073;42.352;23.808;2023-01-15T14:14:24;94854.53;;;3.28;100.00
62978;BME280;49073;42.352;23.808;2023-01-15T14:25:03;94867.78;;;3.45;100.00
62978;BME280;49073;42.352;23.808;2023-01-15T14:31:27;94862.19;;;3.38;100.00
62978;BME280;49073;42.352;23.808;2023-01-15T14:34:33;94863.28;;;3.46;100.00
62978;BME280;49073;42.352;23.808;2023-01-15T14:40:57;94856.63;;;3.17;100.00
62978;BME280;49073;42.352;23.808;2023-01-15T14:44:01;94852.53;;;3.33;100.00
62978;BME280;49073;42.352;23.808;2023-01-15T14:47:04;94858.63;;;3.43;100.00
62978;BME280;49073;42.352;23.808;2023-01-15T14:50:28;94858.63;;;3.43;100.00
62978;BME280;49073;42.352;23.808;2023-01-15T14:53:56;94861.72;;;3.45;100.00
62978;BME280;49073;42.352;23.808;2023-01-15T14:56:59;94859.84;;;3.37;100.00
62978;BME280;49073;42.352;23.808;2023-01-15T15:00:03;94867.78;;;3.45;100.00
62978;BME280;49073;42.352;23.808;2023-01-15T15:03:32;94858.50;;;3.48;100.00
62978;BME280;49073;42.352;23.808;2023-01-15T15:06:43;94852.16;;;3.49;100.00
62978;BME280;49073;42.352;23.808;2023-01-15T15:13:10;94855.69;;;3.44;100.00
62978;BME280;49073;42.352;23.808;2023-01-15T15:16:25;94861.31;;;3.52;100.00
62978;BME280;49073;42.352;23.808;2023-01-15T15:19:41;94858.50;;;3.48;100.00
62978;BME280;49073;42.352;23.808;2023-01-15T15:22:45;94853.41;;;3.52;100.00
62978;BME280;49073;42.352;23.808;2023-01-15T15:25:58;94853.53;;;3.46;100.00
62978;BME280;49073;42.352;23.808;2023-01-15T15:32:04;94855.78;;;3.62;100.00
62978;BME280;49073;42.352;23.808;2023-01-15T15:35:20;94852.53;;;3.65;100.00
62978;BME280;49073;42.352;23.808;2023-01-15T15:38:22;94861.66;;;3.59;100.00
62978;BME280;49073;42.352;23.808;2023-01-15T15:41:26;94851.53;;;3.52;100.00
62978;BME280;49073;42.352;23.808;2023-01-15T15:44:58;94858.34;;;3.44;100.00
62978;BME280;49073;42.352;23.808;2023-01-15T15:48:35;94860.63;;;3.37;100.00
62978;BME280;49073;42.352;23.808;2023-01-15T15:51:47;94861.25;;;3.43;100.00
62978;BME280;49073;42.352;23.808;2023-01-15T15:55:02;94849.16;;;3.42;100.00
62978;BME280;49073;42.352;23.808;2023-01-15T15:58:06;94857.13;;;3.19;100.00
62978;BME280;49073;42.352;23.808;2023-01-15T16:01:12;94861.59;;;3.18;100.00
62978;BME280;49073;42.352;23.808;2023-01-15T16:04:17;94862.00;;;3.34;100.00
62978;BME280;49073;42.352;23.808;2023-01-15T16:07:24;94867.66;;;3.19;100.00
62978;BME280;49073;42.352;23.808;2023-01-15T16:10:31;94868.97;;;3.08;100.00
62978;BME280;49073;42.352;23.808;2023-01-15T16:13:35;94870.22;;;3.10;100.00
62978;BME280;49073;42.352;23.808;2023-01-15T16:16:38;94870.66;;;3.03;100.00
62978;BME280;49073;42.352;23.808;2023-01-15T16:19:38;94874.53;;;3.06;100.00
62978;BME280;49073;42.352;23.808;2023-01-15T16:22:50;94872.84;;;3.10;100.00
62978;BME280;49073;42.352;23.808;2023-01-15T16:26:13;94877.41;;;2.96;100.00
62978;BME280;49073;42.352;23.808;2023-01-15T16:29:20;94877.41;;;2.96;100.00
62978;BME280;49073;42.352;23.808;2023-01-15T16:32:26;94868.44;;;2.97;100.00
62978;BME280;49073;42.352;23.808;2023-01-15T16:35:28;94866.88;;;2.96;100.00
62978;BME280;49073;42.352;23.808;2023-01-15T16:38:32;94867.09;;;3.08;100.00
62978;BME280;49073;42.352;23.808;2023-01-15T16:41:38;94870.06;;;3.07;100.00
62978;BME280;49073;42.352;23.808;2023-01-15T16:44:49;94864.31;;;3.04;100.00
62978;BME280;49073;42.352;23.808;2023-01-15T16:57:31;94858.09;;;3.00;100.00
62978;BME280;49073;42.352;23.808;2023-01-15T17:00:32;94863.94;;;2.97;100.00
62978;BME280;49073;42.352;23.808;2023-01-15T17:03:33;94867.81;;;3.00;100.00
62978;BME280;49073;42.352;23.808;2023-01-15T17:06:33;94863.09;;;3.11;100.00
62978;BME280;49073;42.352;23.808;2023-01-15T17:09:35;94869.22;;;2.97;100.00
62978;BME280;49073;42.352;23.808;2023-01-15T17:12:41;94868.75;;;2.95;100.00
62978;BME280;49073;42.352;23.808;2023-01-15T17:15:42;94870.69;;;2.89;100.00
62978;BME280;49073;42.352;23.808;2023-01-15T17:18:44;94870.34;;;3.05;100.00
62978;BME280;49073;42.352;23.808;2023-01-15T17:21:45;94869.22;;;2.97;100.00
62978;BME280;49073;42.352;23.808;2023-01-15T17:24:52;94864.25;;;2.96;100.00
62978;BME280;49073;42.352;23.808;2023-01-15T17:27:54;94857.13;;;2.96;100.00
62978;BME280;49073;42.352;23.808;2023-01-15T17:30:59;94858.13;;;3.09;100.00
62978;BME280;49073;42.352;23.808;2023-01-15T17:34:02;94856.34;;;2.96;100.00
62978;BME280;49073;42.352;23.808;2023-01-15T17:37:03;94857.72;;;2.93;100.00
62978;BME280;49073;42.352;23.808;2023-01-15T17:40:04;94850.31;;;2.95;100.00
62978;BME280;49073;42.352;23.808;2023-01-15T17:43:05;94847.25;;;3.02;100.00
62978;BME280;49073;42.352;23.808;2023-01-15T17:46:07;94854.25;;;3.07;100.00
62978;BME280;49073;42.352;23.808;2023-01-15T17:49:07;94849.47;;;3.09;100.00
62978;BME280;49073;42.352;23.808;2023-01-15T17:52:17;94851.84;;;3.19;100.00
62978;BME280;49073;42.352;23.808;2023-01-15T17:55:22;94857.84;;;3.11;100.00
62978;BME280;49073;42.352;23.808;2023-01-15T17:58:41;94850.78;;;2.97;100.00
62978;BME280;49073;42.352;23.808;2023-01-15T18:02:01;94856.16;;;2.92;100.00
62978;BME280;49073;42.352;23.808;2023-01-15T18:05:21;94849.28;;;2.82;100.00
62978;BME280;49073;42.352;23.808;2023-01-15T18:08:26;94854.72;;;2.86;100.00
62978;BME280;49073;42.352;23.808;2023-01-15T18:11:26;94850.97;;;2.78;100.00
62978;BME280;49073;42.352;23.808;2023-01-15T18:14:28;94858.19;;;2.72;100.00
62978;BME280;49073;42.352;23.808;2023-01-15T18:17:28;94845.69;;;2.78;100.00
62978;BME280;49073;42.352;23.808;2023-01-15T18:20:30;94836.25;;;2.77;100.00
62978;BME280;49073;42.352;23.808;2023-01-15T18:23:32;94842.34;;;2.86;100.00